Time;durP1;ratioP1;P1;durP2;ratioP2;P2;SDS_P1;SDS_P2;PMS_P1;PMS_P2;Temp;Humidity;BMP_temperature;BMP_pressure;BME280_temperature;BME280_humidity;BME280_pressure;Samples;Min_cycle;Max_cycle;Signal;HPM_P1;HPM_P2
2021/01/01 00:01:14;;;;;;;923.10;573.30;;;0.50;99.90;;;;;;5113762;27;38622;-78
2021/01/01 00:03:41;;;;;;;1028.27;593.40;;;0.50;99.90;;;;;;5129619;27;38400;-80
2021/01/01 00:06:10;;;;;;;819.37;517.47;;;0.50;99.90;;;;;;5142970;27;38410;-81
2021/01/01 00:08:37;;;;;;;795.27;498.53;;;0.50;99.90;;;;;;5115314;27;39222;-79
2021/01/01 00:11:03;;;;;;;984.80;544.07;;;0.50;99.90;;;;;;5116542;27;37853;-80
2021/01/01 00:13:29;;;;;;;872.47;510.13;;;0.50;99.90;;;;;;5123906;27;39126;-78
2021/01/01 00:15:55;;;;;;;604.27;413.93;;;0.60;99.90;;;;;;5122444;27;40623;-80
2021/01/01 00:18:22;;;;;;;948.60;541.67;;;0.50;99.90;;;;;;5124031;27;38592;-81
2021/01/01 00:20:48;;;;;;;677.77;443.60;;;0.50;99.90;;;;;;5119244;27;36853;-80
2021/01/01 00:23:14;;;;;;;629.17;434.13;;;0.50;99.90;;;;;;5133257;27;37279;-82
2021/01/01 00:25:40;;;;;;;833.50;518.87;;;0.60;99.90;;;;;;5116278;27;40267;-79
2021/01/01 00:28:06;;;;;;;1080.13;601.00;;;0.60;99.90;;;;;;5121651;27;40006;-79
2021/01/01 00:30:32;;;;;;;1314.90;604.47;;;0.60;99.90;;;;;;5109336;27;38277;-81
2021/01/01 00:32:58;;;;;;;1082.40;577.13;;;0.50;99.90;;;;;;5113053;27;36666;-79
2021/01/01 00:35:24;;;;;;;1526.77;616.17;;;0.60;99.90;;;;;;5098410;27;39125;-81
2021/01/01 00:37:51;;;;;;;898.83;561.40;;;0.50;99.90;;;;;;5103476;27;39795;-80
2021/01/01 00:40:17;;;;;;;1918.13;690.43;;;0.50;99.90;;;;;;5113903;27;39697;-79
2021/01/01 00:42:44;;;;;;;1519.90;704.77;;;0.40;99.90;;;;;;5118652;27;37801;-80
2021/01/01 00:45:10;;;;;;;1979.93;696.47;;;0.50;99.90;;;;;;5113320;27;39790;-80
2021/01/01 00:47:36;;;;;;;1182.23;634.03;;;0.50;99.90;;;;;;5126053;27;37343;-78
2021/01/01 00:50:04;;;;;;;939.83;557.77;;;0.50;99.90;;;;;;5137239;27;37969;-80
2021/01/01 00:52:30;;;;;;;1412.00;543.97;;;0.50;99.90;;;;;;5134287;27;37463;-79
2021/01/01 00:54:56;;;;;;;832.83;459.73;;;0.50;99.90;;;;;;5123646;27;40355;-83
2021/01/01 00:57:22;;;;;;;667.93;401.97;;;0.50;99.90;;;;;;5114919;27;37247;-80
2021/01/01 00:59:48;;;;;;;805.77;407.83;;;0.60;99.90;;;;;;5117238;27;40173;-78
2021/01/01 01:02:14;;;;;;;714.23;389.43;;;0.70;99.90;;;;;;5116750;27;38579;-80
2021/01/01 01:04:40;;;;;;;550.37;324.07;;;0.70;99.90;;;;;;5120255;27;37678;-78
2021/01/01 01:07:07;;;;;;;729.70;392.60;;;0.80;99.90;;;;;;5125465;27;37889;-83
2021/01/01 01:09:33;;;;;;;708.37;374.63;;;0.90;99.90;;;;;;5124608;27;40772;-78
2021/01/01 01:11:59;;;;;;;636.73;357.80;;;0.90;99.90;;;;;;5123606;27;37214;-82
2021/01/01 01:14:25;;;;;;;729.30;368.63;;;0.90;99.90;;;;;;5119759;27;38443;-80
2021/01/01 01:16:51;;;;;;;606.33;334.63;;;0.90;99.90;;;;;;5117675;27;38475;-81
2021/01/01 01:19:17;;;;;;;521.67;293.07;;;0.90;99.90;;;;;;5114001;27;37773;-80
2021/01/01 01:21:44;;;;;;;509.63;301.60;;;0.90;99.90;;;;;;5131899;27;37603;-82
2021/01/01 01:24:10;;;;;;;588.80;314.67;;;0.90;99.90;;;;;;5117309;27;39121;-79
2021/01/01 01:26:36;;;;;;;597.13;321.20;;;0.90;99.90;;;;;;5118762;27;38648;-81
2021/01/01 01:29:02;;;;;;;558.60;312.63;;;0.80;99.90;;;;;;5116304;27;38161;-82
2021/01/01 01:31:29;;;;;;;553.07;297.80;;;0.80;99.90;;;;;;5114277;27;37601;-79
2021/01/01 01:33:55;;;;;;;479.73;271.93;;;0.70;99.90;;;;;;5116853;27;39462;-80
2021/01/01 01:36:21;;;;;;;658.60;328.97;;;0.70;99.90;;;;;;5116197;27;37445;-78
2021/01/01 01:38:47;;;;;;;571.33;308.73;;;0.70;99.90;;;;;;5130402;27;37156;-80
2021/01/01 01:41:14;;;;;;;543.47;298.47;;;0.60;99.90;;;;;;5119342;27;37520;-83
2021/01/01 01:43:40;;;;;;;427.80;244.87;;;0.60;99.90;;;;;;5121237;27;39809;-80
2021/01/01 01:46:06;;;;;;;667.67;306.73;;;0.60;99.90;;;;;;5116769;27;37297;-81
2021/01/01 01:48:35;;;;;;;658.77;384.10;;;0.60;99.90;;;;;;5124740;27;35938;-80
2021/01/01 01:51:02;;;;;;;558.97;300.13;;;0.50;99.90;;;;;;5118495;27;39847;-80
2021/01/01 01:53:34;;;;;;;491.43;265.70;;;0.50;99.90;;;;;;5120375;27;48884;-80
2021/01/01 01:56:00;;;;;;;469.60;255.45;;;0.50;99.90;;;;;;5123478;27;38679;-79
2021/01/01 01:58:27;;;;;;;437.17;244.00;;;0.50;99.90;;;;;;5125527;27;47465;-82
2021/01/01 02:03:22;;;;;;;571.10;297.67;;;0.60;99.90;;;;;;5097802;27;40519;-81
2021/01/01 02:05:48;;;;;;;522.87;288.80;;;0.60;99.90;;;;;;5099543;27;38924;-80
2021/01/01 02:08:14;;;;;;;495.23;272.00;;;0.50;99.90;;;;;;5102037;27;39506;-79
2021/01/01 02:10:41;;;;;;;542.77;291.27;;;0.40;99.90;;;;;;5102574;27;36880;-79
2021/01/01 02:13:10;;;;;;;510.27;279.30;;;0.40;99.90;;;;;;5102411;27;39642;-79
2021/01/01 02:15:36;;;;;;;563.83;288.77;;;0.30;99.90;;;;;;5094708;27;40659;-82
2021/01/01 02:18:02;;;;;;;453.17;239.87;;;0.30;99.90;;;;;;5096329;27;38961;-81
2021/01/01 02:20:28;;;;;;;400.53;201.20;;;0.20;99.90;;;;;;5096268;27;36212;-79
2021/01/01 02:22:54;;;;;;;381.47;189.73;;;0.20;99.90;;;;;;5104266;27;37047;-78
2021/01/01 02:25:20;;;;;;;271.80;144.67;;;0.30;99.90;;;;;;5101997;27;39447;-80
2021/01/01 02:27:47;;;;;;;365.20;169.83;;;0.30;99.90;;;;;;5107844;27;38305;-81
2021/01/01 02:30:15;;;;;;;367.87;175.63;;;0.30;99.90;;;;;;5100668;27;38448;-80
2021/01/01 02:32:41;;;;;;;313.23;149.73;;;0.30;99.90;;;;;;5131548;27;40876;-79
2021/01/01 02:35:08;;;;;;;299.40;143.63;;;0.30;99.90;;;;;;5098774;27;38855;-82
2021/01/01 02:37:35;;;;;;;216.10;118.37;;;0.30;99.90;;;;;;5104840;27;38355;-81
2021/01/01 02:40:01;;;;;;;251.23;123.17;;;0.40;99.90;;;;;;5101903;27;38016;-79
2021/01/01 02:42:27;;;;;;;247.77;123.07;;;0.40;99.90;;;;;;5097135;27;47136;-79
2021/01/01 02:44:53;;;;;;;227.80;114.80;;;0.50;99.90;;;;;;5100461;27;38334;-81
2021/01/01 02:47:19;;;;;;;235.10;122.53;;;0.50;99.90;;;;;;5100815;27;37485;-78
2021/01/01 02:49:45;;;;;;;227.67;119.13;;;0.50;99.90;;;;;;5102712;27;38311;-79
2021/01/01 02:52:11;;;;;;;195.20;103.53;;;0.50;99.90;;;;;;5097956;27;39702;-81
2021/01/01 02:54:38;;;;;;;213.73;104.10;;;0.40;99.90;;;;;;5102954;27;38580;-79
2021/01/01 02:57:04;;;;;;;199.60;94.40;;;0.50;99.90;;;;;;5092785;27;39009;-80
2021/01/01 02:59:30;;;;;;;200.27;94.67;;;0.50;99.90;;;;;;5087214;27;37601;-79
2021/01/01 03:01:56;;;;;;;180.20;76.60;;;0.60;99.90;;;;;;5094377;27;40397;-80
2021/01/01 03:04:22;;;;;;;153.77;68.80;;;0.70;99.90;;;;;;5098203;27;39437;-79
2021/01/01 03:06:48;;;;;;;141.17;61.37;;;0.70;99.90;;;;;;5104423;27;38148;-80
2021/01/01 03:09:14;;;;;;;109.57;49.13;;;0.80;99.90;;;;;;5100840;27;37724;-78
2021/01/01 03:11:40;;;;;;;121.70;50.90;;;1.00;99.90;;;;;;5103313;27;39495;-80
2021/01/01 03:14:06;;;;;;;119.37;53.13;;;1.00;99.90;;;;;;5132127;27;40119;-81
2021/01/01 03:16:33;;;;;;;100.53;46.20;;;1.10;99.90;;;;;;5098773;27;37913;-82
2021/01/01 03:18:59;;;;;;;68.13;37.37;;;1.00;99.90;;;;;;5100173;27;36923;-80
2021/01/01 03:21:25;;;;;;;70.50;38.37;;;1.00;99.90;;;;;;5102165;27;38515;-81
2021/01/01 03:23:51;;;;;;;106.13;49.83;;;0.90;99.90;;;;;;5113557;27;38396;-79
2021/01/01 03:26:17;;;;;;;100.93;51.30;;;0.80;99.90;;;;;;5099977;27;38464;-81
2021/01/01 03:28:43;;;;;;;75.67;38.93;;;0.70;99.90;;;;;;5104626;27;37526;-82
2021/01/01 03:31:09;;;;;;;78.17;40.77;;;0.70;99.90;;;;;;5097485;27;37959;-80
2021/01/01 03:33:36;;;;;;;126.30;58.30;;;0.80;99.90;;;;;;5098113;27;42073;-79
2021/01/01 03:36:03;;;;;;;69.50;35.00;;;0.80;99.90;;;;;;5101475;27;38474;-80
2021/01/01 03:38:30;;;;;;;66.70;35.83;;;0.70;99.90;;;;;;5105782;27;37733;-80
2021/01/01 03:40:56;;;;;;;87.07;40.87;;;0.70;99.90;;;;;;5132139;27;39048;-83
2021/01/01 03:43:23;;;;;;;124.90;66.10;;;0.70;99.90;;;;;;5094621;27;39010;-81
2021/01/01 03:45:49;;;;;;;53.00;30.87;;;0.70;99.90;;;;;;5099799;27;36972;-78
2021/01/01 03:48:16;;;;;;;78.13;39.43;;;0.70;99.90;;;;;;5093218;27;38551;-83
2021/01/01 03:50:43;;;;;;;143.23;67.10;;;0.60;99.90;;;;;;5114768;27;37743;-85
2021/01/01 03:53:09;;;;;;;101.77;44.93;;;0.60;99.90;;;;;;5098332;27;39246;-82
2021/01/01 03:55:35;;;;;;;82.73;39.00;;;0.60;99.90;;;;;;5101222;27;39230;-82
2021/01/01 03:58:02;;;;;;;89.47;41.90;;;0.60;99.90;;;;;;5132721;27;37055;-80
2021/01/01 04:00:28;;;;;;;94.07;45.90;;;0.60;99.90;;;;;;5120184;27;38869;-81
2021/01/01 04:02:54;;;;;;;174.20;75.37;;;0.60;99.90;;;;;;5146457;27;37987;-81
2021/01/01 04:05:20;;;;;;;152.43;72.10;;;0.50;99.90;;;;;;5123706;27;39810;-79
2021/01/01 04:07:46;;;;;;;131.20;64.17;;;0.50;99.90;;;;;;5144055;27;37577;-80
2021/01/01 04:10:12;;;;;;;133.57;63.13;;;0.40;99.90;;;;;;5121922;27;39820;-79
2021/01/01 04:12:39;;;;;;;151.50;75.00;;;0.40;99.90;;;;;;5144319;27;38235;-83
2021/01/01 04:15:06;;;;;;;159.97;76.87;;;0.40;99.90;;;;;;5137783;27;38247;-80
2021/01/01 04:17:32;;;;;;;151.00;66.47;;;0.30;99.90;;;;;;5137579;27;38075;-79
2021/01/01 04:19:58;;;;;;;112.63;54.17;;;0.30;99.90;;;;;;5122770;27;39543;-79
2021/01/01 04:22:24;;;;;;;81.37;42.47;;;0.30;99.90;;;;;;5123857;27;40179;-79
2021/01/01 04:24:50;;;;;;;89.23;42.20;;;0.30;99.90;;;;;;5125209;27;38823;-81
2021/01/01 04:27:17;;;;;;;69.37;35.63;;;0.30;99.90;;;;;;5145629;27;38013;-78
2021/01/01 04:29:43;;;;;;;72.50;34.67;;;0.40;99.90;;;;;;5120597;27;40708;-78
2021/01/01 04:32:09;;;;;;;71.17;35.00;;;0.50;99.90;;;;;;5121183;27;40129;-78
2021/01/01 04:34:36;;;;;;;69.47;32.53;;;0.50;99.90;;;;;;5137885;27;37621;-79
2021/01/01 04:37:02;;;;;;;90.50;38.30;;;0.60;99.90;;;;;;5127575;27;38480;-84
2021/01/01 04:39:28;;;;;;;42.60;22.33;;;0.70;99.90;;;;;;5140970;27;39753;-79
2021/01/01 04:41:55;;;;;;;39.50;21.07;;;0.80;99.90;;;;;;5139882;27;38905;-83
2021/01/01 04:44:25;;;;;;;44.30;23.60;;;1.10;99.90;;;;;;5134430;27;37845;-79
2021/01/01 04:46:52;;;;;;;70.40;29.80;;;1.20;99.90;;;;;;5115802;27;36620;-79
2021/01/01 04:49:19;;;;;;;56.67;27.57;;;1.30;99.90;;;;;;5113598;27;39611;-81
2021/01/01 04:51:45;;;;;;;64.13;28.87;;;1.30;99.90;;;;;;5121734;27;39792;-79
2021/01/01 04:54:12;;;;;;;70.80;28.23;;;1.30;99.90;;;;;;5119439;27;38343;-81
2021/01/01 04:56:45;;;;;;;50.57;23.43;;;1.40;99.90;;;;;;5138093;27;37834;-79
2021/01/01 04:59:15;;;;;;;27.43;15.97;;;1.40;99.90;;;;;;5144404;27;38845;-80
2021/01/01 05:01:45;;;;;;;49.57;22.33;;;1.50;99.90;;;;;;5119794;27;37397;-79
2021/01/01 05:04:12;;;;;;;39.03;17.63;;;1.60;99.90;;;;;;5138098;27;37765;-80
2021/01/01 05:06:42;;;;;;;38.20;18.37;;;1.70;99.90;;;;;;5135612;27;39266;-79
2021/01/01 05:09:12;;;;;;;47.97;18.37;;;1.70;99.90;;;;;;5125273;27;39405;-79
2021/01/01 05:11:39;;;;;;;24.07;13.00;;;1.80;99.90;;;;;;5138692;27;39958;-78
2021/01/01 05:14:07;;;;;;;32.27;14.73;;;2.00;99.90;;;;;;5146294;27;37860;-80
2021/01/01 05:16:34;;;;;;;34.47;14.93;;;2.00;99.90;;;;;;5123531;27;39537;-79
2021/01/01 05:19:12;;;;;;;24.57;13.53;;;2.00;99.90;;;;;;5124918;27;40402;-79
2021/01/01 05:21:39;;;;;;;32.40;15.90;;;2.00;99.90;;;;;;5142147;27;48588;-78
2021/01/01 05:24:06;;;;;;;24.80;15.33;;;2.00;99.90;;;;;;5115286;27;39186;-80
2021/01/01 05:26:33;;;;;;;24.90;12.00;;;2.00;99.90;;;;;;5123114;27;36762;-79
2021/01/01 05:29:07;;;;;;;30.70;15.40;;;2.10;99.90;;;;;;5137396;27;39671;-80
2021/01/01 05:31:38;;;;;;;33.30;15.87;;;2.20;99.90;;;;;;5101456;27;47427;-79
2021/01/01 05:34:10;;;;;;;23.33;12.90;;;2.10;99.90;;;;;;5116847;27;38939;-80
2021/01/01 05:36:36;;;;;;;33.67;15.73;;;2.10;99.90;;;;;;5116519;27;38216;-80
2021/01/01 05:39:17;;;;;;;38.60;16.63;;;2.10;99.90;;;;;;5120972;27;40606;-78
2021/01/01 05:41:48;;;;;;;28.90;13.83;;;2.20;99.90;;;;;;5137452;27;48735;-79
2021/01/01 05:44:31;;;;;;;41.53;16.77;;;2.20;99.90;;;;;;5134760;27;38233;-78
2021/01/01 05:46:57;;;;;;;18.90;9.60;;;2.20;99.90;;;;;;5118316;27;37366;-80
2021/01/01 05:49:29;;;;;;;19.03;9.03;;;2.20;99.90;;;;;;5117096;27;39643;-79
2021/01/01 05:52:18;;;;;;;24.43;11.03;;;2.20;99.90;;;;;;5118885;27;37657;-81
2021/01/01 05:55:05;;;;;;;23.10;10.80;;;2.20;99.90;;;;;;5103793;27;47558;-79
2021/01/01 05:57:36;;;;;;;36.23;14.80;;;2.30;99.90;;;;;;5115565;27;47615;-78
2021/01/01 06:00:08;;;;;;;24.90;11.63;;;2.30;99.90;;;;;;5127195;27;38877;-80
2021/01/01 06:02:39;;;;;;;30.75;13.90;;;2.30;99.90;;;;;;5118521;27;39251;-79
2021/01/01 06:05:10;;;;;;;27.47;12.00;;;2.30;99.90;;;;;;5113085;27;38869;-77
2021/01/01 06:07:38;;;;;;;40.27;15.03;;;2.30;99.90;;;;;;5120235;27;37671;-78
2021/01/01 06:10:06;;;;;;;20.60;10.07;;;2.20;99.90;;;;;;5114484;27;39716;-80
2021/01/01 06:12:37;;;;;;;29.73;13.23;;;2.20;99.90;;;;;;5109132;27;37334;-78
2021/01/01 06:15:06;;;;;;;29.83;14.40;;;2.20;99.90;;;;;;5118752;27;38878;-81
2021/01/01 06:17:47;;;;;;;19.87;10.87;;;2.20;99.90;;;;;;5128380;27;37688;-78
2021/01/01 06:20:18;;;;;;;24.17;13.17;;;2.10;99.90;;;;;;5122072;27;37886;-79
2021/01/01 06:23:00;;;;;;;27.97;13.77;;;2.20;99.90;;;;;;5124984;27;38757;-80
2021/01/01 06:25:27;;;;;;;25.33;12.80;;;2.40;99.90;;;;;;5137408;27;37092;-78
2021/01/01 06:27:54;;;;;;;29.60;15.70;;;2.30;99.90;;;;;;5109635;27;36463;-77
2021/01/01 06:30:23;;;;;;;90.80;41.67;;;2.40;99.90;;;;;;5128810;27;38620;-77
2021/01/01 06:32:51;;;;;;;57.27;26.47;;;2.40;99.90;;;;;;5138030;27;38595;-78
2021/01/01 06:35:20;;;;;;;48.17;22.77;;;2.40;99.90;;;;;;5127850;27;38976;-79
2021/01/01 06:37:47;;;;;;;38.70;19.03;;;2.40;99.90;;;;;;5129629;27;38989;-79
2021/01/01 06:40:35;;;;;;;30.30;15.20;;;2.50;99.90;;;;;;5126238;27;37830;-80
2021/01/01 06:43:06;;;;;;;45.13;19.83;;;2.60;99.90;;;;;;5144065;27;40087;-78
2021/01/01 06:45:36;;;;;;;29.03;15.07;;;2.60;99.90;;;;;;5142163;27;38570;-78
2021/01/01 06:48:20;;;;;;;32.63;16.33;;;2.70;99.90;;;;;;5118514;27;36687;-80
2021/01/01 06:50:51;;;;;;;25.80;14.07;;;2.70;99.90;;;;;;5139716;27;39156;-78
2021/01/01 06:53:19;;;;;;;35.53;16.30;;;2.70;99.90;;;;;;5117064;27;40888;-79
2021/01/01 06:55:47;;;;;;;36.97;16.13;;;2.70;99.90;;;;;;5148741;27;37965;-78
2021/01/01 06:58:14;;;;;;;33.17;14.90;;;2.60;99.90;;;;;;5118476;27;36415;-77
2021/01/01 07:00:49;;;;;;;26.57;12.93;;;2.60;99.90;;;;;;5129214;27;39334;-79
2021/01/01 07:03:34;;;;;;;24.37;12.00;;;2.60;99.90;;;;;;5143687;27;39150;-78
2021/01/01 07:06:03;;;;;;;27.03;13.03;;;2.60;99.90;;;;;;5136674;27;39489;-78
2021/01/01 07:08:41;;;;;;;27.67;14.23;;;2.60;99.90;;;;;;5146646;27;48898;-80
2021/01/01 07:11:13;;;;;;;28.97;12.87;;;2.60;99.90;;;;;;5143083;27;38042;-78
2021/01/01 07:13:53;;;;;;;25.97;12.93;;;2.70;99.90;;;;;;5116666;27;37689;-78
2021/01/01 07:16:23;;;;;;;25.23;11.90;;;2.70;99.90;;;;;;5137951;27;37211;-78
2021/01/01 07:18:51;;;;;;;22.83;11.70;;;2.70;99.90;;;;;;5139682;27;37510;-79
2021/01/01 07:21:18;;;;;;;36.43;14.20;;;2.80;99.90;;;;;;5123735;27;37715;-80
2021/01/01 07:23:46;;;;;;;18.93;11.00;;;2.80;99.90;;;;;;5126262;27;37549;-80
2021/01/01 07:26:14;;;;;;;20.90;11.97;;;2.90;99.90;;;;;;5141115;27;38961;-79
2021/01/01 07:28:42;;;;;;;17.83;10.53;;;3.00;99.90;;;;;;5121424;27;37711;-80
2021/01/01 07:31:13;;;;;;;16.30;10.50;;;3.10;99.90;;;;;;5139386;27;39913;-79
2021/01/01 07:33:39;;;;;;;17.80;10.07;;;3.20;99.90;;;;;;5135858;27;37758;-83
2021/01/01 07:36:07;;;;;;;21.17;9.07;;;3.30;99.90;;;;;;5117143;27;37230;-81
2021/01/01 07:38:36;;;;;;;18.13;10.40;;;3.40;99.90;;;;;;5121180;27;36729;-82
2021/01/01 07:41:03;;;;;;;23.60;11.60;;;3.40;99.90;;;;;;5146934;27;40305;-81
2021/01/01 07:43:29;;;;;;;26.83;13.97;;;3.40;99.90;;;;;;5121948;27;37412;-81
2021/01/01 07:45:57;;;;;;;17.67;10.50;;;3.40;99.90;;;;;;5118140;27;40551;-82
2021/01/01 07:48:25;;;;;;;14.77;8.03;;;3.40;99.90;;;;;;5116311;27;37361;-84
2021/01/01 07:50:56;;;;;;;17.30;8.73;;;3.60;99.90;;;;;;5124703;27;38997;-79
2021/01/01 07:53:22;;;;;;;13.67;8.13;;;3.70;99.90;;;;;;5125287;27;40089;-81
2021/01/01 07:55:49;;;;;;;20.87;9.00;;;3.80;99.90;;;;;;5123892;27;37375;-79
2021/01/01 07:58:15;;;;;;;22.77;11.53;;;3.80;99.90;;;;;;5120074;27;37507;-82
2021/01/01 08:00:44;;;;;;;22.70;12.27;;;3.80;99.90;;;;;;5132951;27;38368;-79
2021/01/01 08:03:15;;;;;;;20.63;10.23;;;3.80;99.90;;;;;;5115057;27;38614;-83
2021/01/01 08:05:44;;;;;;;15.33;10.33;;;3.80;99.90;;;;;;5136661;27;37889;-82
2021/01/01 08:08:22;;;;;;;16.47;11.10;;;3.80;99.90;;;;;;5121384;27;38646;-82
2021/01/01 08:10:50;;;;;;;22.87;12.47;;;3.90;99.90;;;;;;5125090;27;38152;-84
2021/01/01 08:13:22;;;;;;;22.57;12.13;;;3.90;99.90;;;;;;5121421;27;38992;-82
2021/01/01 08:15:49;;;;;;;25.65;13.13;;;3.90;99.90;;;;;;5119781;27;39969;-82
2021/01/01 08:18:23;;;;;;;38.13;16.57;;;3.90;99.90;;;;;;5138659;27;36295;-80
2021/01/01 08:20:57;;;;;;;18.67;11.80;;;3.90;99.90;;;;;;5138016;27;40708;-81
2021/01/01 08:23:25;;;;;;;18.47;10.60;;;3.90;99.90;;;;;;5136359;27;39992;-87
2021/01/01 08:25:53;;;;;;;25.83;12.03;;;4.00;99.90;;;;;;5122222;27;37165;-85
2021/01/01 08:28:22;;;;;;;19.70;11.10;;;4.10;99.90;;;;;;5136505;27;35505;-84
2021/01/01 08:31:05;;;;;;;28.83;14.30;;;4.10;99.90;;;;;;5137119;27;39145;-81
2021/01/01 08:33:41;;;;;;;22.40;11.63;;;4.20;99.90;;;;;;5132620;27;47284;-80
2021/01/01 08:36:11;;;;;;;18.20;11.40;;;4.20;99.90;;;;;;5122651;27;38881;-81
2021/01/01 08:38:47;;;;;;;21.37;11.43;;;4.20;99.90;;;;;;5120043;27;37741;-81
2021/01/01 08:41:17;;;;;;;20.30;11.07;;;4.30;99.90;;;;;;5123482;27;39777;-88
2021/01/01 08:43:44;;;;;;;17.63;9.87;;;4.30;99.90;;;;;;5143120;27;38791;-86
2021/01/01 08:46:17;;;;;;;20.20;10.73;;;4.30;99.90;;;;;;5141417;27;38089;-87
2021/01/01 08:48:44;;;;;;;14.60;9.03;;;4.30;99.90;;;;;;5130824;27;37687;-83
2021/01/01 08:51:10;;;;;;;25.33;12.57;;;4.30;99.90;;;;;;5134803;27;37477;-87
2021/01/01 08:53:40;;;;;;;21.50;11.73;;;4.40;99.90;;;;;;5119440;27;39369;-85
2021/01/01 08:56:08;;;;;;;22.90;11.90;;;4.40;99.90;;;;;;5140283;27;38125;-81
2021/01/01 08:58:34;;;;;;;20.43;11.17;;;4.40;99.90;;;;;;5139138;27;37872;-83
2021/01/01 09:01:17;;;;;;;29.93;14.53;;;4.40;99.90;;;;;;5123427;27;39455;-84
2021/01/01 09:03:44;;;;;;;21.13;12.20;;;4.50;99.90;;;;;;5110975;27;47356;-88
2021/01/01 09:06:19;;;;;;;32.17;14.70;;;4.50;99.90;;;;;;5122193;27;38078;-83
2021/01/01 09:08:46;;;;;;;29.23;14.33;;;4.50;99.90;;;;;;5119307;27;38248;-87
2021/01/01 09:11:22;;;;;;;24.40;13.50;;;4.50;99.90;;;;;;5134383;27;39708;-87
2021/01/01 09:14:02;;;;;;;19.40;11.90;;;4.60;99.90;;;;;;5135143;27;38268;-87
2021/01/01 09:16:29;;;;;;;22.03;11.90;;;4.60;99.90;;;;;;5136843;27;48705;-83
2021/01/01 09:18:55;;;;;;;28.00;13.10;;;4.60;99.90;;;;;;5134936;27;37691;-87
2021/01/01 09:21:21;;;;;;;33.77;16.60;;;4.60;99.90;;;;;;5117439;27;39256;-84
2021/01/01 09:23:54;;;;;;;23.73;14.63;;;4.60;99.90;;;;;;5121084;27;39359;-87
2021/01/01 09:26:24;;;;;;;24.77;15.27;;;4.60;99.90;;;;;;5135770;27;38669;-86
2021/01/01 09:29:05;;;;;;;25.23;15.07;;;4.60;99.90;;;;;;5119068;27;36288;-84
2021/01/01 09:31:33;;;;;;;23.80;13.80;;;4.70;99.90;;;;;;5122441;27;47196;-88
2021/01/01 09:34:04;;;;;;;29.57;13.57;;;4.70;99.90;;;;;;5119235;27;38785;-88
2021/01/01 09:36:37;;;;;;;22.97;13.63;;;4.70;99.90;;;;;;5143278;27;48046;-85
2021/01/01 09:39:09;;;;;;;23.83;13.63;;;4.70;99.90;;;;;;5129119;27;39260;-84
2021/01/01 09:41:35;;;;;;;31.13;17.33;;;4.70;99.90;;;;;;5140582;27;39779;-85
2021/01/01 09:44:02;;;;;;;21.13;13.30;;;4.80;99.90;;;;;;5129744;27;40047;-87
2021/01/01 09:46:28;;;;;;;23.53;13.20;;;4.80;99.90;;;;;;5126681;27;38431;-89
2021/01/01 09:48:54;;;;;;;23.60;12.87;;;4.80;99.90;;;;;;5129197;27;38868;-83
2021/01/01 09:51:20;;;;;;;25.07;14.17;;;4.90;99.90;;;;;;5122938;27;38807;-88
2021/01/01 09:53:46;;;;;;;23.50;12.20;;;4.90;99.90;;;;;;5128663;27;40069;-84
2021/01/01 09:56:12;;;;;;;31.57;15.77;;;5.00;99.90;;;;;;5130339;27;39493;-82
2021/01/01 09:58:38;;;;;;;22.07;12.53;;;5.00;99.90;;;;;;5124204;27;38683;-82
2021/01/01 10:01:04;;;;;;;26.63;14.30;;;5.00;99.90;;;;;;5126256;27;39504;-86
2021/01/01 10:03:30;;;;;;;18.97;12.10;;;5.10;99.90;;;;;;5151482;27;38414;-85
2021/01/01 10:05:56;;;;;;;19.73;11.50;;;5.10;99.90;;;;;;5147440;27;38238;-81
2021/01/01 10:08:22;;;;;;;22.33;10.43;;;5.10;99.90;;;;;;5127606;27;37796;-82
2021/01/01 10:10:49;;;;;;;27.27;11.40;;;5.00;99.90;;;;;;5128707;27;39015;-84
2021/01/01 10:13:15;;;;;;;21.77;10.23;;;5.10;99.90;;;;;;5143231;27;39087;-80
2021/01/01 10:15:41;;;;;;;24.00;12.87;;;5.00;99.90;;;;;;5132975;27;39171;-80
2021/01/01 10:18:07;;;;;;;18.50;11.23;;;5.00;99.90;;;;;;5142173;27;38454;-80
2021/01/01 10:20:33;;;;;;;24.17;11.90;;;5.20;99.90;;;;;;5125959;27;39492;-82
2021/01/01 10:22:59;;;;;;;22.73;11.10;;;5.10;99.90;;;;;;5129853;27;39122;-82
2021/01/01 10:25:25;;;;;;;18.43;11.47;;;5.10;99.90;;;;;;5129143;27;38414;-82
2021/01/01 10:27:52;;;;;;;16.43;11.00;;;5.10;99.90;;;;;;5128163;27;39059;-85
2021/01/01 10:30:18;;;;;;;20.40;10.87;;;5.10;99.90;;;;;;5124257;27;39603;-83
2021/01/01 10:32:44;;;;;;;19.50;11.03;;;5.10;99.90;;;;;;5124216;27;39452;-79
2021/01/01 10:35:10;;;;;;;26.93;13.17;;;5.20;99.90;;;;;;5123844;27;38918;-79
2021/01/01 10:37:36;;;;;;;24.23;11.63;;;5.30;99.90;;;;;;5123954;27;39627;-82
2021/01/01 10:40:04;;;;;;;26.20;12.60;;;5.50;99.90;;;;;;5142933;27;37693;-79
2021/01/01 10:42:30;;;;;;;26.87;14.00;;;5.50;99.90;;;;;;5145558;27;36901;-80
2021/01/01 10:44:56;;;;;;;26.57;11.97;;;5.70;99.90;;;;;;5128952;27;39113;-79
2021/01/01 10:47:22;;;;;;;17.87;10.57;;;5.60;99.90;;;;;;5127775;27;39301;-79
2021/01/01 10:49:48;;;;;;;22.33;11.87;;;5.60;99.90;;;;;;5128210;27;40350;-80
2021/01/01 10:52:14;;;;;;;29.17;13.77;;;5.70;99.90;;;;;;5130787;27;40191;-83
2021/01/01 10:54:41;;;;;;;32.90;14.17;;;5.80;99.90;;;;;;5127768;27;38740;-78
2021/01/01 10:57:07;;;;;;;23.63;12.93;;;6.00;99.90;;;;;;5127071;27;38016;-86
2021/01/01 10:59:33;;;;;;;30.97;14.77;;;6.10;99.90;;;;;;5144450;27;39713;-80
2021/01/01 11:02:00;;;;;;;20.80;11.30;;;6.20;99.90;;;;;;5127961;27;39213;-78
2021/01/01 11:04:27;;;;;;;16.93;11.53;;;6.20;99.90;;;;;;5126060;27;38633;-81
2021/01/01 11:06:54;;;;;;;20.27;10.33;;;6.20;99.90;;;;;;5129371;27;39261;-80
2021/01/01 11:09:20;;;;;;;14.67;7.60;;;6.20;99.90;;;;;;5145515;27;39763;-78
2021/01/01 11:11:48;;;;;;;14.37;6.27;;;6.30;99.90;;;;;;5148179;27;38349;-78
2021/01/01 12:25:38;;;;;;;4.68;2.05;;;7.60;99.90;;;;;;5064999;28;40177;-80
2021/01/01 12:28:06;;;;;;;7.67;2.10;;;7.50;99.90;;;;;;5060138;28;38613;-78
2021/01/01 12:30:33;;;;;;;6.63;2.73;;;7.50;99.90;;;;;;5065965;27;38783;-77
2021/01/01 12:33:01;;;;;;;6.40;2.37;;;7.50;99.90;;;;;;5065015;28;38531;-77
2021/01/01 12:35:27;;;;;;;6.70;2.80;;;7.30;99.90;;;;;;5064453;28;48016;-77
2021/01/01 12:38:02;;;;;;;9.23;3.40;;;7.20;99.90;;;;;;5065129;28;37531;-78
2021/01/01 12:40:28;;;;;;;10.17;3.50;;;7.00;99.90;;;;;;5065603;27;50093;-77
2021/01/01 12:42:57;;;;;;;6.73;3.30;;;6.90;99.90;;;;;;5059670;28;37151;-81
2021/01/01 12:45:23;;;;;;;8.30;3.80;;;6.90;99.90;;;;;;5059189;27;39670;-77
2021/01/01 12:47:51;;;;;;;9.93;4.23;;;6.80;99.90;;;;;;5065507;28;40462;-77
2021/01/01 12:50:20;;;;;;;9.70;4.60;;;6.70;99.90;;;;;;5065977;28;37188;-77
2021/01/01 12:52:57;;;;;;;11.80;4.93;;;6.70;99.90;;;;;;5064029;28;38922;-77
2021/01/01 12:55:25;;;;;;;14.40;6.00;;;6.60;99.90;;;;;;5055641;28;41189;-76
2021/01/01 12:57:54;;;;;;;12.43;5.20;;;6.60;99.90;;;;;;5064714;28;38806;-77
2021/01/01 13:00:21;;;;;;;13.90;5.97;;;6.60;99.90;;;;;;5054005;28;37251;-77
2021/01/01 13:02:47;;;;;;;12.40;5.83;;;6.60;99.90;;;;;;5067065;28;36865;-77
2021/01/01 13:05:14;;;;;;;15.57;6.30;;;6.60;99.90;;;;;;5056286;28;41066;-77
2021/01/01 13:07:42;;;;;;;11.27;6.60;;;6.60;99.90;;;;;;5061192;28;38333;-76
2021/01/01 13:10:12;;;;;;;12.50;5.67;;;6.60;99.90;;;;;;5049730;27;38355;-77
2021/01/01 13:12:38;;;;;;;19.63;7.07;;;6.60;99.90;;;;;;5057648;28;37781;-76
2021/01/01 13:15:05;;;;;;;13.93;6.70;;;6.70;99.90;;;;;;5064429;28;38992;-77
2021/01/01 13:17:34;;;;;;;10.50;6.07;;;6.70;99.90;;;;;;5068115;28;38968;-77
2021/01/01 13:20:01;;;;;;;12.17;6.30;;;6.80;99.90;;;;;;5062191;28;37656;-77
2021/01/01 13:22:27;;;;;;;16.33;7.10;;;6.80;99.90;;;;;;5067751;28;38535;-76
2021/01/01 13:24:53;;;;;;;13.20;5.87;;;6.90;99.90;;;;;;5051229;28;37965;-76
2021/01/01 13:27:25;;;;;;;14.60;5.47;;;7.00;99.90;;;;;;5061267;28;39010;-76
2021/01/01 13:29:53;;;;;;;7.15;4.22;;;7.00;99.90;;;;;;5050499;28;36994;-76
2021/01/01 13:32:19;;;;;;;9.60;4.37;;;6.90;99.90;;;;;;5065884;28;37318;-76
2021/01/01 13:34:45;;;;;;;6.00;3.20;;;6.90;99.90;;;;;;5061559;28;36750;-76
2021/01/01 13:37:12;;;;;;;4.07;2.57;;;6.90;99.90;;;;;;5058461;28;38885;-77
2021/01/01 13:39:40;;;;;;;5.00;3.13;;;6.90;99.90;;;;;;5064940;27;39096;-75
2021/01/01 13:42:06;;;;;;;7.07;3.40;;;6.90;99.90;;;;;;5061005;28;37947;-77
2021/01/01 13:44:32;;;;;;;5.87;3.60;;;7.00;99.90;;;;;;5061905;28;38061;-78
2021/01/01 13:46:58;;;;;;;6.93;3.80;;;7.00;99.90;;;;;;5064839;28;38149;-77
2021/01/01 13:49:24;;;;;;;7.37;3.50;;;7.00;99.90;;;;;;5060866;28;38567;-77
2021/01/01 13:51:50;;;;;;;8.13;4.20;;;7.10;99.90;;;;;;5064415;28;37728;-74